sensor_id;sensor_type;location;lat;lon;timestamp;temperature;humidity
19397;DHT22;9834;48.076;11.878;2024-02-28T04:02:22;5.50;99.90
19397;DHT22;9834;48.076;11.878;2024-02-28T04:04:49;5.50;99.90
19397;DHT22;9834;48.076;11.878;2024-02-28T04:07:17;5.40;99.90
19397;DHT22;9834;48.076;11.878;2024-02-28T04:09:45;5.40;99.90
19397;DHT22;9834;48.076;11.878;2024-02-28T04:12:12;5.40;99.90
19397;DHT22;9834;48.076;11.878;2024-02-28T04:14:39;5.40;99.90
19397;DHT22;9834;48.076;11.878;2024-02-28T04:17:13;5.40;99.90
19397;DHT22;9834;48.076;11.878;2024-02-28T04:19:52;5.40;99.90
19397;DHT22;9834;48.076;11.878;2024-02-28T04:22:22;5.40;99.90
19397;DHT22;9834;48.076;11.878;2024-02-28T04:24:52;5.30;99.90
19397;DHT22;9834;48.076;11.878;2024-02-28T04:27:20;5.40;99.90
19397;DHT22;9834;48.076;11.878;2024-02-28T04:29:50;5.40;99.90
19397;DHT22;9834;48.076;11.878;2024-02-28T04:32:18;5.30;99.90
19397;DHT22;9834;48.076;11.878;2024-02-28T04:34:45;5.30;99.90
19397;DHT22;9834;48.076;11.878;2024-02-28T04:37:16;5.30;99.90
19397;DHT22;9834;48.076;11.878;2024-02-28T04:39:49;5.30;99.90
19397;DHT22;9834;48.076;11.878;2024-02-28T04:42:16;5.30;99.90
19397;DHT22;9834;48.076;11.878;2024-02-28T04:44:47;5.20;99.90
19397;DHT22;9834;48.076;11.878;2024-02-28T04:47:17;5.20;99.90
19397;DHT22;9834;48.076;11.878;2024-02-28T04:49:57;5.20;99.90
19397;DHT22;9834;48.076;11.878;2024-02-28T04:52:28;5.10;99.90
19397;DHT22;9834;48.076;11.878;2024-02-28T04:54:56;5.10;99.90
19397;DHT22;9834;48.076;11.878;2024-02-28T04:57:23;5.10;99.90
19397;DHT22;9834;48.076;11.878;2024-02-28T04:59:50;5.10;99.90
19397;DHT22;9834;48.076;11.878;2024-02-28T05:02:24;5.20;99.90
19397;DHT22;9834;48.076;11.878;2024-02-28T05:04:59;5.20;99.90
19397;DHT22;9834;48.076;11.878;2024-02-28T05:07:29;5.10;99.90
19397;DHT22;9834;48.076;11.878;2024-02-28T05:10:00;5.20;99.90
19397;DHT22;9834;48.076;11.878;2024-02-28T05:12:31;5.20;99.90
19397;DHT22;9834;48.076;11.878;2024-02-28T05:14:58;5.20;99.90
19397;DHT22;9834;48.076;11.878;2024-02-28T05:17:26;5.20;99.90
19397;DHT22;9834;48.076;11.878;2024-02-28T05:19:56;5.20;99.90
19397;DHT22;9834;48.076;11.878;2024-02-28T05:22:25;5.10;99.90
19397;DHT22;9834;48.076;11.878;2024-02-28T05:24:54;5.20;99.90
19397;DHT22;9834;48.076;11.878;2024-02-28T05:27:25;5.20;99.90
19397;DHT22;9834;48.076;11.878;2024-02-28T05:29:56;5.20;99.90
19397;DHT22;9834;48.076;11.878;2024-02-28T05:32:26;5.10;99.90
19397;DHT22;9834;48.076;11.878;2024-02-28T05:34:58;5.20;99.90
19397;DHT22;9834;48.076;11.878;2024-02-28T05:37:28;5.20;99.90
19397;DHT22;9834;48.076;11.878;2024-02-28T05:39:56;5.10;99.90
19397;DHT22;9834;48.076;11.878;2024-02-28T05:42:24;5.10;99.90
19397;DHT22;9834;48.076;11.878;2024-02-28T05:44:52;5.10;99.90
19397;DHT22;9834;48.076;11.878;2024-02-28T05:47:25;5.10;99.90
19397;DHT22;9834;48.076;11.878;2024-02-28T05:49:54;5.10;99.90
19397;DHT22;9834;48.076;11.878;2024-02-28T05:52:25;5.10;99.90
19397;DHT22;9834;48.076;11.878;2024-02-28T05:55:05;5.10;99.90
19397;DHT22;9834;48.076;11.878;2024-02-28T05:57:39;5.10;99.90
19397;DHT22;9834;48.076;11.878;2024-02-28T06:00:14;5.00;99.90
19397;DHT22;9834;48.076;11.878;2024-02-28T06:02:41;5.00;99.90
19397;DHT22;9834;48.076;11.878;2024-02-28T06:05:12;5.00;99.90
19397;DHT22;9834;48.076;11.878;2024-02-28T06:07:40;5.00;99.90
19397;DHT22;9834;48.076;11.878;2024-02-28T06:10:12;5.00;99.90
19397;DHT22;9834;48.076;11.878;2024-02-28T06:12:40;5.00;99.90
19397;DHT22;9834;48.076;11.878;2024-02-28T06:15:08;5.00;99.90
19397;DHT22;9834;48.076;11.878;2024-02-28T06:17:37;5.00;99.90
19397;DHT22;9834;48.076;11.878;2024-02-28T06:20:06;5.10;99.90
19397;DHT22;9834;48.076;11.878;2024-02-28T06:22:37;5.10;99.90
19397;DHT22;9834;48.076;11.878;2024-02-28T06:25:09;5.10;99.90
19397;DHT22;9834;48.076;11.878;2024-02-28T06:27:44;5.10;99.90
19397;DHT22;9834;48.076;11.878;2024-02-28T06:30:15;5.10;99.90
19397;DHT22;9834;48.076;11.878;2024-02-28T06:32:45;5.20;99.90
19397;DHT22;9834;48.076;11.878;2024-02-28T06:35:13;5.20;99.90
19397;DHT22;9834;48.076;11.878;2024-02-28T06:37:40;5.20;99.90
19397;DHT22;9834;48.076;11.878;2024-02-28T06:40:10;5.20;99.90
19397;DHT22;9834;48.076;11.878;2024-02-28T06:42:37;5.20;99.90
19397;DHT22;9834;48.076;11.878;2024-02-28T06:45:05;5.20;99.90
19397;DHT22;9834;48.076;11.878;2024-02-28T06:47:34;5.20;99.90
19397;DHT22;9834;48.076;11.878;2024-02-28T06:50:09;5.30;99.90
19397;DHT22;9834;48.076;11.878;2024-02-28T06:52:38;5.30;99.90
19397;DHT22;9834;48.076;11.878;2024-02-28T06:55:06;5.30;99.90
19397;DHT22;9834;48.076;11.878;2024-02-28T06:57:48;5.40;99.90
19397;DHT22;9834;48.076;11.878;2024-02-28T07:00:16;5.30;99.90
19397;DHT22;9834;48.076;11.878;2024-02-28T07:02:45;5.40;99.90
19397;DHT22;9834;48.076;11.878;2024-02-28T07:05:13;5.40;99.90
19397;DHT22;9834;48.076;11.878;2024-02-28T07:07:54;5.40;99.90
19397;DHT22;9834;48.076;11.878;2024-02-28T07:10:24;5.40;99.90
19397;DHT22;9834;48.076;11.878;2024-02-28T07:12:53;5.40;99.90
19397;DHT22;9834;48.076;11.878;2024-02-28T07:15:20;5.40;99.90
19397;DHT22;9834;48.076;11.878;2024-02-28T07:17:48;5.40;99.90
19397;DHT22;9834;48.076;11.878;2024-02-28T07:20:18;5.40;99.90
19397;DHT22;9834;48.076;11.878;2024-02-28T07:22:49;5.40;99.90
19397;DHT22;9834;48.076;11.878;2024-02-28T07:25:16;5.50;99.90
19397;DHT22;9834;48.076;11.878;2024-02-28T07:27:46;5.50;99.90
19397;DHT22;9834;48.076;11.878;2024-02-28T07:30:16;5.50;99.90
19397;DHT22;9834;48.076;11.878;2024-02-28T07:32:43;5.50;99.90
19397;DHT22;9834;48.076;11.878;2024-02-28T07:35:14;5.50;99.90
19397;DHT22;9834;48.076;11.878;2024-02-28T07:37:53;5.60;99.90
19397;DHT22;9834;48.076;11.878;2024-02-28T07:40:20;5.60;99.90
19397;DHT22;9834;48.076;11.878;2024-02-28T07:42:48;5.60;99.90
19397;DHT22;9834;48.076;11.878;2024-02-28T07:45:17;5.60;99.90
19397;DHT22;9834;48.076;11.878;2024-02-28T07:47:50;5.70;99.90
19397;DHT22;9834;48.076;11.878;2024-02-28T07:50:29;5.70;99.90
19397;DHT22;9834;48.076;11.878;2024-02-28T07:52:56;5.70;99.90
19397;DHT22;9834;48.076;11.878;2024-02-28T07:55:37;5.80;99.90
19397;DHT22;9834;48.076;11.878;2024-02-28T07:58:05;5.90;99.90
19397;DHT22;9834;48.076;11.878;2024-02-28T08:00:34;5.90;99.90
19397;DHT22;9834;48.076;11.878;2024-02-28T08:03:02;6.00;99.90
19397;DHT22;9834;48.076;11.878;2024-02-28T08:05:33;6.00;99.90
19397;DHT22;9834;48.076;11.878;2024-02-28T08:08:07;6.10;99.90
19397;DHT22;9834;48.076;11.878;2024-02-28T08:10:36;6.10;99.90
19397;DHT22;9834;48.076;11.878;2024-02-28T08:13:06;6.10;99.90
19397;DHT22;9834;48.076;11.878;2024-02-28T08:15:41;6.20;99.90
19397;DHT22;9834;48.076;11.878;2024-02-28T08:18:08;6.20;99.90
19397;DHT22;9834;48.076;11.878;2024-02-28T08:20:41;6.20;99.90
19397;DHT22;9834;48.076;11.878;2024-02-28T08:23:15;6.20;99.90
19397;DHT22;9834;48.076;11.878;2024-02-28T08:25:48;6.40;99.90
19397;DHT22;9834;48.076;11.878;2024-02-28T08:28:18;6.50;99.90
19397;DHT22;9834;48.076;11.878;2024-02-28T08:30:58;6.50;99.90
19397;DHT22;9834;48.076;11.878;2024-02-28T08:33:34;6.50;99.90
19397;DHT22;9834;48.076;11.878;2024-02-28T08:36:04;6.40;99.90
19397;DHT22;9834;48.076;11.878;2024-02-28T08:38:37;6.40;99.90
19397;DHT22;9834;48.076;11.878;2024-02-28T08:41:05;6.50;99.90
19397;DHT22;9834;48.076;11.878;2024-02-28T08:43:39;6.60;99.90
19397;DHT22;9834;48.076;11.878;2024-02-28T08:46:08;6.60;99.90
19397;DHT22;9834;48.076;11.878;2024-02-28T08:48:41;6.60;99.90
19397;DHT22;9834;48.076;11.878;2024-02-28T08:51:08;6.70;99.90
19397;DHT22;9834;48.076;11.878;2024-02-28T08:53:36;6.70;99.90
19397;DHT22;9834;48.076;11.878;2024-02-28T08:56:04;6.70;99.90
19397;DHT22;9834;48.076;11.878;2024-02-28T08:58:35;6.80;99.90
19397;DHT22;9834;48.076;11.878;2024-02-28T09:01:09;6.70;99.90
19397;DHT22;9834;48.076;11.878;2024-02-28T09:03:45;6.80;99.90
19397;DHT22;9834;48.076;11.878;2024-02-28T09:06:32;6.80;99.90
19397;DHT22;9834;48.076;11.878;2024-02-28T09:08:59;6.70;99.90
19397;DHT22;9834;48.076;11.878;2024-02-28T09:11:35;6.80;99.90
19397;DHT22;9834;48.076;11.878;2024-02-28T09:14:03;6.90;99.90
19397;DHT22;9834;48.076;11.878;2024-02-28T09:16:35;7.00;99.90
19397;DHT22;9834;48.076;11.878;2024-02-28T09:19:08;7.10;99.90
19397;DHT22;9834;48.076;11.878;2024-02-28T09:21:41;7.20;99.90
19397;DHT22;9834;48.076;11.878;2024-02-28T09:24:21;7.20;99.90
19397;DHT22;9834;48.076;11.878;2024-02-28T09:26:58;7.20;99.90
19397;DHT22;9834;48.076;11.878;2024-02-28T09:29:25;7.20;99.90
19397;DHT22;9834;48.076;11.878;2024-02-28T09:32:09;7.20;99.90
19397;DHT22;9834;48.076;11.878;2024-02-28T09:34:40;7.30;99.90
19397;DHT22;9834;48.076;11.878;2024-02-28T09:37:13;7.30;99.90
19397;DHT22;9834;48.076;11.878;2024-02-28T09:39:41;7.30;99.90
19397;DHT22;9834;48.076;11.878;2024-02-28T09:42:16;7.20;99.90
19397;DHT22;9834;48.076;11.878;2024-02-28T09:44:44;7.20;99.90
19397;DHT22;9834;48.076;11.878;2024-02-28T09:47:13;7.30;99.90
19397;DHT22;9834;48.076;11.878;2024-02-28T09:49:42;7.30;99.90
19397;DHT22;9834;48.076;11.878;2024-02-28T09:52:10;7.30;99.90
19397;DHT22;9834;48.076;11.878;2024-02-28T09:54:40;7.30;99.90
19397;DHT22;9834;48.076;11.878;2024-02-28T09:57:11;7.30;99.90
19397;DHT22;9834;48.076;11.878;2024-02-28T09:59:39;7.40;99.90
19397;DHT22;9834;48.076;11.878;2024-02-28T10:02:11;7.60;99.90
19397;DHT22;9834;48.076;11.878;2024-02-28T10:04:39;7.70;99.90
19397;DHT22;9834;48.076;11.878;2024-02-28T10:07:17;7.80;99.90
19397;DHT22;9834;48.076;11.878;2024-02-28T10:09:45;7.80;99.90
19397;DHT22;9834;48.076;11.878;2024-02-28T10:12:18;7.80;99.90
19397;DHT22;9834;48.076;11.878;2024-02-28T10:14:49;7.80;99.90
19397;DHT22;9834;48.076;11.878;2024-02-28T10:17:19;7.80;99.90
19397;DHT22;9834;48.076;11.878;2024-02-28T10:19:51;7.90;99.90
19397;DHT22;9834;48.076;11.878;2024-02-28T10:22:19;8.00;99.90
19397;DHT22;9834;48.076;11.878;2024-02-28T10:24:47;7.90;99.90
19397;DHT22;9834;48.076;11.878;2024-02-28T10:27:20;8.00;99.90
19397;DHT22;9834;48.076;11.878;2024-02-28T10:29:51;8.10;99.90
19397;DHT22;9834;48.076;11.878;2024-02-28T10:32:20;8.00;99.90
19397;DHT22;9834;48.076;11.878;2024-02-28T10:34:48;8.10;99.90
19397;DHT22;9834;48.076;11.878;2024-02-28T10:37:22;8.30;99.90
19397;DHT22;9834;48.076;11.878;2024-02-28T10:39:52;8.50;99.90
19397;DHT22;9834;48.076;11.878;2024-02-28T10:42:25;8.60;99.90
19397;DHT22;9834;48.076;11.878;2024-02-28T10:44:57;8.50;99.90
19397;DHT22;9834;48.076;11.878;2024-02-28T10:47:30;8.50;99.90
19397;DHT22;9834;48.076;11.878;2024-02-28T10:49:58;8.50;99.90
19397;DHT22;9834;48.076;11.878;2024-02-28T10:52:25;8.70;99.90
19397;DHT22;9834;48.076;11.878;2024-02-28T10:54:57;8.90;99.90
19397;DHT22;9834;48.076;11.878;2024-02-28T10:57:30;9.10;99.90
19397;DHT22;9834;48.076;11.878;2024-02-28T10:59:58;9.20;99.90
19397;DHT22;9834;48.076;11.878;2024-02-28T11:02:31;9.30;99.90
19397;DHT22;9834;48.076;11.878;2024-02-28T11:04:59;9.30;99.90
19397;DHT22;9834;48.076;11.878;2024-02-28T11:07:33;9.30;99.90
19397;DHT22;9834;48.076;11.878;2024-02-28T11:10:08;9.20;99.90
19397;DHT22;9834;48.076;11.878;2024-02-28T11:12:37;9.30;99.90
19397;DHT22;9834;48.076;11.878;2024-02-28T11:15:16;9.20;99.90
19397;DHT22;9834;48.076;11.878;2024-02-28T11:17:45;9.20;99.90
19397;DHT22;9834;48.076;11.878;2024-02-28T11:20:14;9.10;99.90
19397;DHT22;9834;48.076;11.878;2024-02-28T11:22:47;8.90;99.90
19397;DHT22;9834;48.076;11.878;2024-02-28T11:25:15;8.70;99.90
19397;DHT22;9834;48.076;11.878;2024-02-28T11:27:50;8.60;99.90
19397;DHT22;9834;48.076;11.878;2024-02-28T11:30:22;8.60;99.90
19397;DHT22;9834;48.076;11.878;2024-02-28T11:32:54;8.50;99.90
19397;DHT22;9834;48.076;11.878;2024-02-28T11:35:31;8.40;99.90
19397;DHT22;9834;48.076;11.878;2024-02-28T11:38:02;8.30;99.90
19397;DHT22;9834;48.076;11.878;2024-02-28T11:40:49;8.20;99.90
19397;DHT22;9834;48.076;11.878;2024-02-28T11:43:22;8.10;99.90
19397;DHT22;9834;48.076;11.878;2024-02-28T11:45:59;8.10;99.90
19397;DHT22;9834;48.076;11.878;2024-02-28T11:48:30;8.10;99.90
19397;DHT22;9834;48.076;11.878;2024-02-28T11:51:06;8.10;99.90
19397;DHT22;9834;48.076;11.878;2024-02-28T11:53:39;8.10;99.90
19397;DHT22;9834;48.076;11.878;2024-02-28T11:56:07;8.20;99.90
19397;DHT22;9834;48.076;11.878;2024-02-28T11:59:01;8.30;99.90
19397;DHT22;9834;48.076;11.878;2024-02-28T12:01:38;8.30;99.90
19397;DHT22;9834;48.076;11.878;2024-02-28T12:04:09;8.40;99.90
19397;DHT22;9834;48.076;11.878;2024-02-28T12:06:37;8.60;99.90
19397;DHT22;9834;48.076;11.878;2024-02-28T12:09:21;8.70;99.90
19397;DHT22;9834;48.076;11.878;2024-02-28T12:11:54;8.70;99.90
19397;DHT22;9834;48.076;11.878;2024-02-28T12:14:27;8.70;99.90
19397;DHT22;9834;48.076;11.878;2024-02-28T12:16:57;8.60;99.90
19397;DHT22;9834;48.076;11.878;2024-02-28T12:19:28;8.60;99.90
19397;DHT22;9834;48.076;11.878;2024-02-28T12:21:59;8.50;99.90
19397;DHT22;9834;48.076;11.878;2024-02-28T12:24:26;8.50;99.90
19397;DHT22;9834;48.076;11.878;2024-02-28T12:26:57;8.40;99.90
19397;DHT22;9834;48.076;11.878;2024-02-28T12:29:27;8.30;99.90
19397;DHT22;9834;48.076;11.878;2024-02-28T12:31:57;8.30;99.90
19397;DHT22;9834;48.076;11.878;2024-02-28T12:34:25;8.10;99.90
19397;DHT22;9834;48.076;11.878;2024-02-28T12:36:56;8.00;99.90
19397;DHT22;9834;48.076;11.878;2024-02-28T12:39:27;7.90;99.90
19397;DHT22;9834;48.076;11.878;2024-02-28T12:41:57;7.80;99.90
19397;DHT22;9834;48.076;11.878;2024-02-28T12:44:30;7.80;99.90
19397;DHT22;9834;48.076;11.878;2024-02-28T12:46:57;7.80;99.90
19397;DHT22;9834;48.076;11.878;2024-02-28T12:49:40;7.80;99.90
19397;DHT22;9834;48.076;11.878;2024-02-28T12:52:16;7.70;99.90
19397;DHT22;9834;48.076;11.878;2024-02-28T12:54:43;7.70;99.90
19397;DHT22;9834;48.076;11.878;2024-02-28T12:57:17;7.70;99.90
19397;DHT22;9834;48.076;11.878;2024-02-28T12:59:45;7.70;99.90
19397;DHT22;9834;48.076;11.878;2024-02-28T13:02:15;7.60;99.90
19397;DHT22;9834;48.076;11.878;2024-02-28T13:04:45;7.70;99.90
19397;DHT22;9834;48.076;11.878;2024-02-28T13:07:13;7.70;99.90
19397;DHT22;9834;48.076;11.878;2024-02-28T13:09:54;7.70;99.90
19397;DHT22;9834;48.076;11.878;2024-02-28T13:12:24;7.70;99.90
19397;DHT22;9834;48.076;11.878;2024-02-28T13:15:05;7.70;99.90
19397;DHT22;9834;48.076;11.878;2024-02-28T13:17:33;7.70;99.90
19397;DHT22;9834;48.076;11.878;2024-02-28T13:20:06;7.70;99.90
19397;DHT22;9834;48.076;11.878;2024-02-28T13:22:34;7.60;99.90
19397;DHT22;9834;48.076;11.878;2024-02-28T13:25:06;7.80;99.90
19397;DHT22;9834;48.076;11.878;2024-02-28T13:27:38;7.80;99.90
19397;DHT22;9834;48.076;11.878;2024-02-28T13:30:06;7.70;99.90
19397;DHT22;9834;48.076;11.878;2024-02-28T13:32:45;7.70;99.90
19397;DHT22;9834;48.076;11.878;2024-02-28T13:35:13;7.70;99.90
19397;DHT22;9834;48.076;11.878;2024-02-28T13:37:41;7.80;99.90
19397;DHT22;9834;48.076;11.878;2024-02-28T13:40:11;7.70;99.90
19397;DHT22;9834;48.076;11.878;2024-02-28T13:42:38;7.70;99.90
19397;DHT22;9834;48.076;11.878;2024-02-28T13:45:09;7.80;99.90
19397;DHT22;9834;48.076;11.878;2024-02-28T13:47:43;7.80;99.90
19397;DHT22;9834;48.076;11.878;2024-02-28T13:50:11;7.80;99.90
19397;DHT22;9834;48.076;11.878;2024-02-28T13:52:43;7.90;99.90
19397;DHT22;9834;48.076;11.878;2024-02-28T13:55:12;8.00;99.90
19397;DHT22;9834;48.076;11.878;2024-02-28T13:57:50;8.00;99.90
19397;DHT22;9834;48.076;11.878;2024-02-28T14:00:18;8.00;99.90
19397;DHT22;9834;48.076;11.878;2024-02-28T14:02:50;8.10;99.90
19397;DHT22;9834;48.076;11.878;2024-02-28T14:05:20;8.20;99.90
19397;DHT22;9834;48.076;11.878;2024-02-28T14:07:48;8.10;99.90
19397;DHT22;9834;48.076;11.878;2024-02-28T14:10:17;8.10;99.90
19397;DHT22;9834;48.076;11.878;2024-02-28T14:12:45;8.00;99.90
19397;DHT22;9834;48.076;11.878;2024-02-28T14:15:12;7.90;99.90
19397;DHT22;9834;48.076;11.878;2024-02-28T14:17:40;7.80;99.90
19397;DHT22;9834;48.076;11.878;2024-02-28T14:20:09;7.70;99.90
19397;DHT22;9834;48.076;11.878;2024-02-28T14:22:46;7.60;99.90
19397;DHT22;9834;48.076;11.878;2024-02-28T14:25:15;8.30;99.90
19397;DHT22;9834;48.076;11.878;2024-02-28T14:27:45;7.60;99.90
19397;DHT22;9834;48.076;11.878;2024-02-28T14:30:13;7.60;99.90
19397;DHT22;9834;48.076;11.878;2024-02-28T14:32:42;7.60;99.90
19397;DHT22;9834;48.076;11.878;2024-02-28T14:35:18;7.70;99.90
19397;DHT22;9834;48.076;11.878;2024-02-28T14:37:46;7.70;99.90
19397;DHT22;9834;48.076;11.878;2024-02-28T14:40:25;7.70;99.90
19397;DHT22;9834;48.076;11.878;2024-02-28T14:42:57;7.70;99.90
19397;DHT22;9834;48.076;11.878;2024-02-28T14:45:31;7.60;99.90
19397;DHT22;9834;48.076;11.878;2024-02-28T14:48:01;7.60;99.90
19397;DHT22;9834;48.076;11.878;2024-02-28T14:50:31;7.70;99.90
19397;DHT22;9834;48.076;11.878;2024-02-28T14:53:03;7.70;99.90
19397;DHT22;9834;48.076;11.878;2024-02-28T14:55:33;7.70;99.90
19397;DHT22;9834;48.076;11.878;2024-02-28T14:58:04;7.70;99.90
19397;DHT22;9834;48.076;11.878;2024-02-28T15:00:32;7.60;99.90
19397;DHT22;9834;48.076;11.878;2024-02-28T15:03:02;7.60;99.90
19397;DHT22;9834;48.076;11.878;2024-02-28T15:05:30;7.50;99.90
19397;DHT22;9834;48.076;11.878;2024-02-28T15:08:04;7.50;99.90
19397;DHT22;9834;48.076;11.878;2024-02-28T15:10:34;7.60;99.90
19397;DHT22;9834;48.076;11.878;2024-02-28T15:13:07;7.60;99.90
19397;DHT22;9834;48.076;11.878;2024-02-28T15:15:37;7.70;99.90
19397;DHT22;9834;48.076;11.878;2024-02-28T15:18:07;7.70;99.90
19397;DHT22;9834;48.076;11.878;2024-02-28T15:20:34;7.60;99.90
19397;DHT22;9834;48.076;11.878;2024-02-28T15:23:02;7.60;99.90
19397;DHT22;9834;48.076;11.878;2024-02-28T15:25:30;7.60;99.90
19397;DHT22;9834;48.076;11.878;2024-02-28T15:27:58;7.60;99.90
19397;DHT22;9834;48.076;11.878;2024-02-28T15:30:32;7.50;99.90
19397;DHT22;9834;48.076;11.878;2024-02-28T15:33:10;7.50;99.90
19397;DHT22;9834;48.076;11.878;2024-02-28T15:35:47;7.40;99.90
19397;DHT22;9834;48.076;11.878;2024-02-28T15:38:22;7.40;99.90
19397;DHT22;9834;48.076;11.878;2024-02-28T15:40:51;7.40;99.90
19397;DHT22;9834;48.076;11.878;2024-02-28T15:43:18;7.40;99.90
19397;DHT22;9834;48.076;11.878;2024-02-28T15:45:49;7.50;99.90
19397;DHT22;9834;48.076;11.878;2024-02-28T15:48:20;7.40;99.90
19397;DHT22;9834;48.076;11.878;2024-02-28T15:50:48;7.40;99.90
19397;DHT22;9834;48.076;11.878;2024-02-28T15:53:19;7.40;99.90
19397;DHT22;9834;48.076;11.878;2024-02-28T15:55:46;7.40;99.90
19397;DHT22;9834;48.076;11.878;2024-02-28T15:58:14;7.30;99.90
19397;DHT22;9834;48.076;11.878;2024-02-28T16:00:46;7.20;99.90
19397;DHT22;9834;48.076;11.878;2024-02-28T16:03:16;7.20;99.90
19397;DHT22;9834;48.076;11.878;2024-02-28T16:05:48;7.20;99.90
19397;DHT22;9834;48.076;11.878;2024-02-28T16:08:19;7.20;99.90
19397;DHT22;9834;48.076;11.878;2024-02-28T16:10:47;7.20;99.90
19397;DHT22;9834;48.076;11.878;2024-02-28T16:13:28;7.20;99.90
19397;DHT22;9834;48.076;11.878;2024-02-28T16:16:00;7.20;99.90
19397;DHT22;9834;48.076;11.878;2024-02-28T16:18:28;7.10;99.90
19397;DHT22;9834;48.076;11.878;2024-02-28T16:20:58;7.10;99.90
19397;DHT22;9834;48.076;11.878;2024-02-28T16:23:29;7.10;99.90
19397;DHT22;9834;48.076;11.878;2024-02-28T16:25:59;7.10;99.90
19397;DHT22;9834;48.076;11.878;2024-02-28T16:28:29;7.10;99.90
19397;DHT22;9834;48.076;11.878;2024-02-28T16:31:04;7.00;99.90
19397;DHT22;9834;48.076;11.878;2024-02-28T16:33:32;7.00;99.90
19397;DHT22;9834;48.076;11.878;2024-02-28T16:36:02;7.00;99.90
19397;DHT22;9834;48.076;11.878;2024-02-28T16:38:29;6.90;99.90
19397;DHT22;9834;48.076;11.878;2024-02-28T16:40:59;6.90;99.90
19397;DHT22;9834;48.076;11.878;2024-02-28T16:43:28;6.80;99.90
19397;DHT22;9834;48.076;11.878;2024-02-28T16:45:58;6.70;99.90
19397;DHT22;9834;48.076;11.878;2024-02-28T16:48:32;6.60;99.90
19397;DHT22;9834;48.076;11.878;2024-02-28T16:50:59;6.50;99.90
19397;DHT22;9834;48.076;11.878;2024-02-28T16:53:35;6.50;99.90
19397;DHT22;9834;48.076;11.878;2024-02-28T16:56:03;6.50;99.90
19397;DHT22;9834;48.076;11.878;2024-02-28T16:58:34;6.50;99.90
19397;DHT22;9834;48.076;11.878;2024-02-28T17:01:08;6.40;99.90
19397;DHT22;9834;48.076;11.878;2024-02-28T17:03:48;6.40;99.90
19397;DHT22;9834;48.076;11.878;2024-02-28T17:06:18;6.40;99.90
19397;DHT22;9834;48.076;11.878;2024-02-28T17:08:45;6.40;99.90
19397;DHT22;9834;48.076;11.878;2024-02-28T17:11:20;6.40;99.90
19397;DHT22;9834;48.076;11.878;2024-02-28T17:13:56;6.40;99.90
19397;DHT22;9834;48.076;11.878;2024-02-28T17:16:25;6.30;99.90
19397;DHT22;9834;48.076;11.878;2024-02-28T17:19:02;6.30;99.90
19397;DHT22;9834;48.076;11.878;2024-02-28T17:21:30;6.40;99.90
19397;DHT22;9834;48.076;11.878;2024-02-28T17:23:59;6.30;99.90
19397;DHT22;9834;48.076;11.878;2024-02-28T17:26:28;6.30;99.90
19397;DHT22;9834;48.076;11.878;2024-02-28T17:28:56;6.30;99.90
19397;DHT22;9834;48.076;11.878;2024-02-28T17:31:27;6.30;99.90
19397;DHT22;9834;48.076;11.878;2024-02-28T17:33:55;6.30;99.90
19397;DHT22;9834;48.076;11.878;2024-02-28T17:36:26;6.30;99.90
19397;DHT22;9834;48.076;11.878;2024-02-28T17:38:54;6.30;99.90
19397;DHT22;9834;48.076;11.878;2024-02-28T17:41:21;6.30;99.90
19397;DHT22;9834;48.076;11.878;2024-02-28T17:43:49;6.20;99.90
19397;DHT22;9834;48.076;11.878;2024-02-28T17:46:18;6.30;99.90
19397;DHT22;9834;48.076;11.878;2024-02-28T17:48:48;6.30;99.90
19397;DHT22;9834;48.076;11.878;2024-02-28T17:51:16;6.20;99.90
19397;DHT22;9834;48.076;11.878;2024-02-28T17:53:46;6.20;99.90
19397;DHT22;9834;48.076;11.878;2024-02-28T17:56:19;6.20;99.90
19397;DHT22;9834;48.076;11.878;2024-02-28T17:58:46;6.20;99.90
19397;DHT22;9834;48.076;11.878;2024-02-28T18:01:14;6.00;99.90
19397;DHT22;9834;48.076;11.878;2024-02-28T18:03:41;6.20;99.90
19397;DHT22;9834;48.076;11.878;2024-02-28T18:06:15;6.20;99.90
19397;DHT22;9834;48.076;11.878;2024-02-28T18:08:51;6.20;99.90
19397;DHT22;9834;48.076;11.878;2024-02-28T18:11:26;6.20;99.90
19397;DHT22;9834;48.076;11.878;2024-02-28T18:13:55;6.10;99.90
19397;DHT22;9834;48.076;11.878;2024-02-28T18:16:23;6.20;99.90
19397;DHT22;9834;48.076;11.878;2024-02-28T18:18:51;6.20;99.90
19397;DHT22;9834;48.076;11.878;2024-02-28T18:21:19;6.10;99.90
19397;DHT22;9834;48.076;11.878;2024-02-28T18:23:48;6.10;99.90
19397;DHT22;9834;48.076;11.878;2024-02-28T18:26:17;6.10;99.90
19397;DHT22;9834;48.076;11.878;2024-02-28T18:28:47;6.10;99.90
19397;DHT22;9834;48.076;11.878;2024-02-28T18:31:20;6.10;99.90
19397;DHT22;9834;48.076;11.878;2024-02-28T18:33:47;6.10;99.90
19397;DHT22;9834;48.076;11.878;2024-02-28T18:36:18;6.00;99.90
19397;DHT22;9834;48.076;11.878;2024-02-28T18:38:47;6.00;99.90
19397;DHT22;9834;48.076;11.878;2024-02-28T18:41:15;6.00;99.90
19397;DHT22;9834;48.076;11.878;2024-02-28T18:43:42;6.00;99.90
19397;DHT22;9834;48.076;11.878;2024-02-28T18:46:10;5.90;99.90
19397;DHT22;9834;48.076;11.878;2024-02-28T18:48:44;5.90;99.90
19397;DHT22;9834;48.076;11.878;2024-02-28T18:51:20;5.80;99.90
19397;DHT22;9834;48.076;11.878;2024-02-28T18:53:52;5.80;99.90
19397;DHT22;9834;48.076;11.878;2024-02-28T18:56:22;5.70;99.90
19397;DHT22;9834;48.076;11.878;2024-02-28T18:58:51;5.60;99.90
19397;DHT22;9834;48.076;11.878;2024-02-28T19:01:19;5.50;99.90
19397;DHT22;9834;48.076;11.878;2024-02-28T19:03:51;5.50;99.90
19397;DHT22;9834;48.076;11.878;2024-02-28T19:06:21;5.40;99.90
19397;DHT22;9834;48.076;11.878;2024-02-28T19:09:05;5.40;99.90
19397;DHT22;9834;48.076;11.878;2024-02-28T19:11:35;5.40;99.90
19397;DHT22;9834;48.076;11.878;2024-02-28T19:14:08;5.40;99.90
19397;DHT22;9834;48.076;11.878;2024-02-28T19:16:40;5.50;99.90
19397;DHT22;9834;48.076;11.878;2024-02-28T19:19:08;5.50;99.90
19397;DHT22;9834;48.076;11.878;2024-02-28T19:21:39;5.50;99.90
19397;DHT22;9834;48.076;11.878;2024-02-28T19:24:15;5.50;99.90
19397;DHT22;9834;48.076;11.878;2024-02-28T19:26:46;5.60;99.90
19397;DHT22;9834;48.076;11.878;2024-02-28T19:29:17;5.60;99.90
19397;DHT22;9834;48.076;11.878;2024-02-28T19:31:44;5.60;99.90
19397;DHT22;9834;48.076;11.878;2024-02-28T19:34:15;5.60;99.90
19397;DHT22;9834;48.076;11.878;2024-02-28T19:36:44;5.70;99.90
19397;DHT22;9834;48.076;11.878;2024-02-28T19:39:16;5.70;99.90
19397;DHT22;9834;48.076;11.878;2024-02-28T19:41:44;5.60;99.90
19397;DHT22;9834;48.076;11.878;2024-02-28T19:44:17;5.60;99.90
19397;DHT22;9834;48.076;11.878;2024-02-28T19:46:45;5.60;99.90
19397;DHT22;9834;48.076;11.878;2024-02-28T19:49:13;5.60;99.90
19397;DHT22;9834;48.076;11.878;2024-02-28T19:51:42;5.60;99.90
19397;DHT22;9834;48.076;11.878;2024-02-28T19:54:19;5.60;99.90
19397;DHT22;9834;48.076;11.878;2024-02-28T19:56:49;5.60;99.90
19397;DHT22;9834;48.076;11.878;2024-02-28T19:59:18;5.60;99.90
19397;DHT22;9834;48.076;11.878;2024-02-28T20:01:48;5.60;99.90
19397;DHT22;9834;48.076;11.878;2024-02-28T20:04:16;5.60;99.90
19397;DHT22;9834;48.076;11.878;2024-02-28T20:06:43;5.60;99.90
19397;DHT22;9834;48.076;11.878;2024-02-28T20:09:11;5.60;99.90